Time;durP1;ratioP1;P1;durP2;ratioP2;P2;SDS_P1;SDS_P2;PMS_P1;PMS_P2;Temp;Humidity;BMP_temperature;BMP_pressure;BME280_temperature;BME280_humidity;BME280_pressure;Samples;Min_cycle;Max_cycle;Signal;HPM_P1;HPM_P2
2021/04/15 00:01:16;;;;;;;9.20;4.50;;;8.30;63.10;;;;;;5116166;28;20457;-76
2021/04/15 00:03:43;;;;;;;7.70;4.53;;;8.20;63.10;;;;;;5116347;28;20813;-76
2021/04/15 00:06:14;;;;;;;5.17;4.47;;;8.20;63.90;;;;;;5115125;28;20474;-75
2021/04/15 00:08:40;;;;;;;5.47;4.50;;;8.10;62.90;;;;;;5115179;28;20463;-76
2021/04/15 00:11:07;;;;;;;6.20;4.70;;;8.10;63.10;;;;;;5115152;28;20447;-76
2021/04/15 00:13:36;;;;;;;4.00;3.70;;;8.00;63.20;;;;;;5115139;28;20821;-75
2021/04/15 00:16:04;;;;;;;6.87;4.77;;;8.00;63.40;;;;;;5115008;28;20442;-75
2021/04/15 00:18:31;;;;;;;5.77;4.90;;;8.00;63.50;;;;;;5114953;28;20466;-76
2021/04/15 00:20:58;;;;;;;4.90;4.40;;;8.00;63.60;;;;;;5115047;28;20453;-75
2021/04/15 00:23:25;;;;;;;4.40;4.00;;;7.90;63.50;;;;;;5115729;28;20442;-75
2021/04/15 00:25:51;;;;;;;4.50;4.10;;;7.90;63.30;;;;;;5115047;28;20486;-75
2021/04/15 00:28:18;;;;;;;5.73;4.93;;;7.90;63.50;;;;;;5114920;28;20451;-76
2021/04/15 00:30:44;;;;;;;5.47;4.97;;;7.90;63.50;;;;;;5115095;28;20443;-75
2021/04/15 00:33:11;;;;;;;5.03;4.53;;;7.90;63.60;;;;;;5115091;28;20786;-75
2021/04/15 00:35:39;;;;;;;4.63;4.23;;;7.80;63.50;;;;;;5114672;28;20962;-75
2021/04/15 00:38:06;;;;;;;3.93;3.50;;;7.80;63.50;;;;;;5114818;28;20483;-76
2021/04/15 00:40:35;;;;;;;5.67;5.10;;;7.80;63.50;;;;;;5114736;28;20464;-76
2021/04/15 00:43:02;;;;;;;5.17;4.40;;;7.70;63.30;;;;;;5114643;28;20454;-76
2021/04/15 00:45:30;;;;;;;5.00;4.50;;;7.70;63.40;;;;;;5114558;28;20474;-76
2021/04/15 00:48:02;;;;;;;6.23;5.20;;;7.70;63.60;;;;;;5114686;28;20483;-76
2021/04/15 00:50:33;;;;;;;10.20;4.30;;;7.60;63.40;;;;;;5114621;28;20815;-76
2021/04/15 00:53:04;;;;;;;5.83;5.33;;;7.60;63.50;;;;;;5114674;28;20480;-75
2021/04/15 00:55:33;;;;;;;5.87;4.63;;;7.60;63.60;;;;;;5114163;28;20484;-75
2021/04/15 00:58:02;;;;;;;4.80;4.30;;;7.60;63.50;;;;;;5114467;28;20515;-76
2021/04/15 01:00:30;;;;;;;5.93;5.43;;;7.50;63.10;;;;;;5113863;28;20936;-76
2021/04/15 01:02:58;;;;;;;5.73;5.13;;;7.50;63.40;;;;;;5114222;28;20443;-76
2021/04/15 01:05:29;;;;;;;6.83;5.20;;;7.40;63.40;;;;;;5114031;28;20482;-75
2021/04/15 01:07:55;;;;;;;8.03;5.10;;;7.40;63.60;;;;;;5113815;28;20439;-76
2021/04/15 01:10:24;;;;;;;7.57;4.23;;;7.30;63.50;;;;;;5113668;28;21038;-76
2021/04/15 01:13:05;;;;;;;4.77;4.37;;;7.30;63.60;;;;;;5114114;28;20435;-76
2021/04/15 01:15:44;;;;;;;5.63;4.97;;;7.20;63.50;;;;;;5114108;28;20439;-76
2021/04/15 01:18:18;;;;;;;4.90;4.50;;;7.20;63.60;;;;;;5113638;28;20793;-76
2021/04/15 01:21:21;;;;;;;6.67;4.80;;;7.20;63.60;;;;;;5114072;28;20430;-75
2021/04/15 01:23:54;;;;;;;5.63;4.87;;;7.10;63.30;;;;;;5113991;28;20803;-75
2021/04/15 01:26:55;;;;;;;4.87;4.33;;;7.00;63.00;;;;;;5113786;28;20518;-75
2021/04/15 01:29:30;;;;;;;5.53;4.93;;;6.90;62.90;;;;;;5113843;28;20508;-75
2021/04/15 01:32:09;;;;;;;6.37;5.50;;;6.90;63.30;;;;;;5114664;28;20487;-75
2021/04/15 01:34:41;;;;;;;6.03;5.43;;;6.80;63.60;;;;;;5113874;28;20480;-75
2021/04/15 01:37:14;;;;;;;6.53;5.90;;;6.80;64.10;;;;;;5113871;28;20419;-75
2021/04/15 01:39:44;;;;;;;6.73;6.13;;;6.70;64.40;;;;;;5113752;28;20459;-76
2021/04/15 01:42:14;;;;;;;7.00;5.77;;;6.70;64.70;;;;;;5113494;28;20427;-75
2021/04/15 01:44:46;;;;;;;6.17;5.50;;;6.70;65.10;;;;;;5113771;28;20427;-75
2021/04/15 01:47:17;;;;;;;6.10;5.50;;;6.70;65.40;;;;;;5113791;28;20425;-75
2021/04/15 01:49:48;;;;;;;6.30;5.57;;;6.70;65.60;;;;;;5113343;28;20459;-75
2021/04/15 01:52:15;;;;;;;6.80;5.50;;;6.60;64.80;;;;;;5113453;28;20423;-75
2021/04/15 01:54:47;;;;;;;5.90;5.30;;;6.60;64.70;;;;;;5113669;28;20814;-75
2021/04/15 01:57:19;;;;;;;5.90;5.40;;;6.50;64.50;;;;;;5113676;28;20423;-75
2021/04/15 01:59:49;;;;;;;6.13;5.43;;;6.50;64.90;;;;;;5113570;28;20466;-75
2021/04/15 02:02:18;;;;;;;6.30;5.70;;;6.40;65.50;;;;;;5113644;28;20441;-75
2021/04/15 02:04:51;;;;;;;5.57;5.00;;;6.40;65.50;;;;;;5113635;28;20434;-75
2021/04/15 02:07:19;;;;;;;7.07;5.63;;;6.30;65.50;;;;;;5113652;28;20435;-75
2021/04/15 02:09:48;;;;;;;6.50;5.97;;;6.30;65.90;;;;;;5113222;28;20522;-75
2021/04/15 02:12:19;;;;;;;6.73;6.13;;;6.30;66.30;;;;;;5114755;28;20935;-75
2021/04/15 02:14:50;;;;;;;6.90;6.30;;;6.30;66.50;;;;;;5117440;28;20437;-75
2021/04/15 02:17:18;;;;;;;6.83;6.13;;;6.30;66.70;;;;;;5117376;28;20423;-75
2021/04/15 02:19:48;;;;;;;10.10;7.10;;;6.30;67.20;;;;;;5117293;28;20477;-75
2021/04/15 02:22:20;;;;;;;7.70;6.90;;;6.20;67.20;;;;;;5117301;28;20790;-76
2021/04/15 02:24:55;;;;;;;9.33;7.00;;;6.20;67.50;;;;;;5117062;28;20454;-76
2021/04/15 02:27:24;;;;;;;8.17;6.73;;;6.20;67.50;;;;;;5117205;28;20476;-75
2021/04/15 02:29:57;;;;;;;7.90;7.00;;;6.10;67.70;;;;;;5117031;28;20490;-75
2021/04/15 02:32:27;;;;;;;7.43;6.70;;;6.10;67.90;;;;;;5117110;28;20476;-75
2021/04/15 02:34:58;;;;;;;7.80;6.87;;;6.10;67.90;;;;;;5116994;28;20566;-75
2021/04/15 02:37:30;;;;;;;8.63;7.73;;;6.10;67.90;;;;;;5116938;28;20431;-75
2021/04/15 02:40:00;;;;;;;8.13;7.33;;;6.10;68.10;;;;;;5117803;28;20473;-75
2021/04/15 02:42:30;;;;;;;7.80;6.60;;;6.10;68.10;;;;;;5116885;28;20422;-75
2021/04/15 02:45:02;;;;;;;8.33;6.90;;;6.10;68.30;;;;;;5117019;28;20445;-75
2021/04/15 02:47:34;;;;;;;7.13;6.43;;;6.10;68.40;;;;;;5116589;28;20908;-75
2021/04/15 02:50:02;;;;;;;7.53;5.83;;;6.00;68.30;;;;;;5116807;28;20466;-75
2021/04/15 02:52:33;;;;;;;7.73;6.23;;;6.00;67.80;;;;;;5116662;28;20460;-75
2021/04/15 02:55:03;;;;;;;7.60;6.80;;;6.00;67.90;;;;;;5116683;28;20430;-76
2021/04/15 02:57:35;;;;;;;7.37;6.57;;;6.00;68.00;;;;;;5116873;28;20453;-75
2021/04/15 03:00:07;;;;;;;6.83;6.13;;;6.00;68.10;;;;;;5116487;28;20856;-76
2021/04/15 03:02:39;;;;;;;7.10;5.97;;;6.00;68.10;;;;;;5116517;28;20419;-75
2021/04/15 03:05:11;;;;;;;6.00;5.40;;;6.00;68.00;;;;;;5116346;28;20481;-76
2021/04/15 03:07:40;;;;;;;8.30;6.50;;;5.90;68.00;;;;;;5116420;28;20450;-75
2021/04/15 03:10:11;;;;;;;7.30;5.63;;;5.90;68.10;;;;;;5116229;28;20466;-75
2021/04/15 03:12:41;;;;;;;7.40;5.60;;;5.90;68.20;;;;;;5116386;28;20434;-76
2021/04/15 03:15:13;;;;;;;6.67;5.97;;;5.80;68.60;;;;;;5116231;28;20443;-75
2021/04/15 03:17:42;;;;;;;7.00;5.50;;;5.80;68.70;;;;;;5116186;28;20430;-75
2021/04/15 03:20:13;;;;;;;8.70;5.30;;;5.80;68.80;;;;;;5116045;28;20467;-75
2021/04/15 03:22:46;;;;;;;7.00;6.30;;;5.80;68.70;;;;;;5116606;28;20464;-76
2021/04/15 03:25:13;;;;;;;7.20;5.70;;;5.80;68.90;;;;;;5115785;28;20466;-76
2021/04/15 03:27:45;;;;;;;5.73;5.23;;;5.80;68.70;;;;;;5115714;28;20943;-76
2021/04/15 03:30:16;;;;;;;5.37;4.93;;;5.70;68.50;;;;;;5115953;28;20459;-76
2021/04/15 03:32:48;;;;;;;7.33;6.50;;;5.70;68.60;;;;;;5115961;28;20423;-76
2021/04/15 03:35:22;;;;;;;9.13;6.03;;;5.70;68.70;;;;;;5115909;28;20430;-76
2021/04/15 03:37:53;;;;;;;5.63;5.13;;;5.70;68.40;;;;;;5115834;28;20438;-76
2021/04/15 03:40:24;;;;;;;6.10;5.50;;;5.70;68.60;;;;;;5115768;27;20462;-76
2021/04/15 03:42:54;;;;;;;7.00;5.87;;;5.70;68.70;;;;;;5115705;28;20434;-75
2021/04/15 03:45:27;;;;;;;7.03;5.70;;;5.70;68.60;;;;;;5115600;28;20474;-76
2021/04/15 03:47:57;;;;;;;7.70;5.90;;;5.60;68.50;;;;;;5115656;28;20450;-76
2021/04/15 03:50:28;;;;;;;6.43;5.73;;;5.60;68.70;;;;;;5115509;28;20467;-76
2021/04/15 03:52:58;;;;;;;6.80;5.30;;;5.60;68.70;;;;;;5115581;28;20434;-76
2021/04/15 03:55:30;;;;;;;6.13;5.33;;;5.50;68.40;;;;;;5115497;28;20476;-76
2021/04/15 03:58:03;;;;;;;5.97;5.47;;;5.50;68.50;;;;;;5115576;28;20543;-76
2021/04/15 04:00:34;;;;;;;6.73;5.80;;;5.40;68.50;;;;;;5115442;28;20422;-76
2021/04/15 04:03:06;;;;;;;7.50;6.20;;;5.40;68.70;;;;;;5115394;28;20443;-76
2021/04/15 04:05:36;;;;;;;8.30;5.80;;;5.40;68.70;;;;;;5115221;28;20463;-75
2021/04/15 04:08:07;;;;;;;7.17;5.90;;;5.40;68.70;;;;;;5115168;28;20439;-76
2021/04/15 04:10:36;;;;;;;9.23;6.33;;;5.30;68.90;;;;;;5115208;28;20430;-77
2021/04/15 04:13:17;;;;;;;6.63;5.00;;;5.30;68.80;;;;;;5115179;28;20443;-76
2021/04/15 04:15:48;;;;;;;7.43;6.00;;;5.20;68.90;;;;;;5115216;28;20801;-77
2021/04/15 04:18:18;;;;;;;5.97;5.37;;;5.20;68.90;;;;;;5114746;28;20427;-76
2021/04/15 04:20:44;;;;;;;5.53;4.67;;;5.10;68.80;;;;;;5114832;28;20899;-76
2021/04/15 04:23:25;;;;;;;7.23;5.07;;;5.00;69.00;;;;;;5114656;28;20848;-76
2021/04/15 04:25:59;;;;;;;5.27;4.87;;;5.00;69.50;;;;;;5114755;28;20489;-76
2021/04/15 04:28:32;;;;;;;6.63;5.80;;;5.00;69.70;;;;;;5114569;28;20462;-76
2021/04/15 04:31:03;;;;;;;6.73;5.20;;;5.00;69.80;;;;;;5114983;28;20427;-77
2021/04/15 04:33:37;;;;;;;9.07;5.40;;;5.00;70.00;;;;;;5114967;28;20427;-77
2021/04/15 04:36:06;;;;;;;5.73;4.83;;;5.00;69.80;;;;;;5114389;28;20431;-77
2021/04/15 04:38:33;;;;;;;6.13;5.53;;;5.00;69.80;;;;;;5114634;28;20481;-76
2021/04/15 04:41:05;;;;;;;7.07;5.50;;;5.00;69.80;;;;;;5114738;28;20445;-77
2021/04/15 04:43:39;;;;;;;5.87;5.23;;;5.00;69.50;;;;;;5114636;28;20431;-76
2021/04/15 04:46:11;;;;;;;5.70;5.07;;;4.90;69.80;;;;;;5114801;28;20461;-77
2021/04/15 04:48:42;;;;;;;6.93;6.20;;;4.90;70.30;;;;;;5114792;28;20462;-77
2021/04/15 04:51:12;;;;;;;5.77;5.27;;;4.90;70.40;;;;;;5114631;28;20438;-76
2021/04/15 04:53:41;;;;;;;6.73;6.13;;;4.90;70.70;;;;;;5114459;28;20502;-76
2021/04/15 04:56:29;;;;;;;7.90;5.50;;;4.90;71.20;;;;;;5113895;28;20438;-76
2021/04/15 04:58:59;;;;;;;9.30;6.10;;;4.90;71.90;;;;;;5108415;27;20477;-75
2021/04/15 05:01:26;;;;;;;7.73;6.40;;;4.90;72.10;;;;;;5114229;28;20493;-76
2021/04/15 05:03:58;;;;;;;9.27;6.47;;;4.90;72.10;;;;;;5114284;28;20805;-76
2021/04/15 05:06:26;;;;;;;6.97;6.27;;;4.90;72.10;;;;;;5114162;28;20469;-75
2021/04/15 05:09:00;;;;;;;6.90;5.90;;;4.90;72.10;;;;;;5113744;28;21009;-76
2021/04/15 05:11:30;;;;;;;7.23;6.40;;;4.90;72.40;;;;;;5114257;28;20433;-76
2021/04/15 05:13:57;;;;;;;6.93;6.27;;;5.00;72.60;;;;;;5114216;28;20450;-75
2021/04/15 05:16:27;;;;;;;6.60;6.00;;;4.90;72.30;;;;;;5114028;28;20498;-76
2021/04/15 05:18:54;;;;;;;6.73;6.13;;;5.00;72.30;;;;;;5114024;28;20470;-76
2021/04/15 05:21:25;;;;;;;6.73;5.93;;;5.00;72.30;;;;;;5113993;28;20461;-76
2021/04/15 05:23:56;;;;;;;6.97;6.27;;;5.00;72.40;;;;;;5113725;28;20793;-76
2021/04/15 05:26:25;;;;;;;7.00;6.40;;;5.00;72.80;;;;;;5113611;28;20486;-76
2021/04/15 05:28:54;;;;;;;6.60;6.00;;;5.10;72.80;;;;;;5113925;28;20473;-76
2021/04/15 05:31:24;;;;;;;6.83;6.13;;;5.00;72.30;;;;;;5114291;28;20477;-76
2021/04/15 05:33:52;;;;;;;7.30;6.20;;;5.00;72.60;;;;;;5113904;28;20452;-76
2021/04/15 05:36:22;;;;;;;6.50;5.77;;;5.00;73.10;;;;;;5113734;28;20438;-76
2021/04/15 05:38:51;;;;;;;7.77;6.53;;;5.00;73.20;;;;;;5114229;28;20469;-77
2021/04/15 05:41:22;;;;;;;6.67;5.97;;;5.10;73.70;;;;;;5114029;28;20427;-77
2021/04/15 05:43:51;;;;;;;7.33;6.60;;;5.10;74.20;;;;;;5113882;28;20431;-76
2021/04/15 05:46:21;;;;;;;7.73;6.93;;;5.10;74.40;;;;;;5113665;28;20990;-77
2021/04/15 05:48:49;;;;;;;7.20;5.53;;;5.10;74.90;;;;;;5118076;28;20466;-77
2021/04/15 05:51:22;;;;;;;8.20;6.40;;;5.20;74.90;;;;;;5117880;28;20473;-76
2021/04/15 05:53:53;;;;;;;6.80;6.20;;;5.20;74.80;;;;;;5118568;28;20441;-77
2021/04/15 05:56:24;;;;;;;6.87;6.17;;;5.20;74.70;;;;;;5117800;28;20422;-77
2021/04/15 05:59:09;;;;;;;8.43;7.27;;;5.30;74.90;;;;;;5117711;28;20466;-76
2021/04/15 06:01:42;;;;;;;7.80;6.47;;;5.30;75.00;;;;;;5117777;28;20842;-76
2021/04/15 06:04:17;;;;;;;7.40;6.33;;;5.40;75.30;;;;;;5117877;28;20437;-77
2021/04/15 06:06:45;;;;;;;8.33;7.63;;;5.40;75.00;;;;;;5117278;28;20457;-76
2021/04/15 06:09:12;;;;;;;10.73;8.20;;;5.50;75.30;;;;;;5117246;28;20454;-77
2021/04/15 06:11:57;;;;;;;7.40;6.70;;;5.50;75.60;;;;;;5117644;28;20438;-77
2021/04/15 06:14:31;;;;;;;9.30;5.93;;;5.60;75.70;;;;;;5117691;28;20435;-77
2021/04/15 06:17:17;;;;;;;10.40;6.60;;;5.60;75.70;;;;;;5117639;28;20426;-77
2021/04/15 06:19:48;;;;;;;12.70;7.33;;;5.60;75.80;;;;;;5117536;28;20475;-77
2021/04/15 06:22:19;;;;;;;7.50;6.57;;;5.60;75.90;;;;;;5117216;28;20419;-77
2021/04/15 06:24:50;;;;;;;12.47;7.37;;;5.70;76.10;;;;;;5116846;28;20942;-76
2021/04/15 06:27:18;;;;;;;9.27;7.63;;;5.70;76.10;;;;;;5117302;28;20462;-76
2021/04/15 06:29:48;;;;;;;9.13;7.40;;;5.80;76.00;;;;;;5117343;28;20458;-76
2021/04/15 06:32:17;;;;;;;9.87;7.30;;;5.80;75.80;;;;;;5117237;28;20438;-77
2021/04/15 06:34:45;;;;;;;11.87;7.77;;;5.80;75.90;;;;;;5117534;28;20450;-77
2021/04/15 06:37:14;;;;;;;13.50;7.93;;;5.90;76.20;;;;;;5117170;28;20927;-77
2021/04/15 06:39:46;;;;;;;10.77;8.13;;;6.00;76.30;;;;;;5117161;28;20515;-77
2021/04/15 06:42:49;;;;;;;9.93;8.13;;;6.00;76.30;;;;;;5116981;28;20932;-76
2021/04/15 06:45:33;;;;;;;9.30;7.87;;;6.20;76.80;;;;;;5116925;28;20431;-76
2021/04/15 06:48:27;;;;;;;13.87;8.87;;;6.30;76.80;;;;;;5116801;28;20459;-77
2021/04/15 06:51:22;;;;;;;9.70;7.67;;;6.40;76.30;;;;;;5116654;28;20423;-77
2021/04/15 06:53:58;;;;;;;14.90;8.50;;;6.50;76.20;;;;;;5116924;28;20427;-76
2021/04/15 06:56:35;;;;;;;11.30;8.77;;;6.60;76.10;;;;;;5116848;28;20826;-77
2021/04/15 06:59:11;;;;;;;9.30;8.17;;;6.70;76.10;;;;;;5115847;28;20994;-76
2021/04/15 07:01:54;;;;;;;10.10;7.63;;;6.80;75.60;;;;;;5116613;28;20827;-76
2021/04/15 07:04:23;;;;;;;9.20;8.30;;;6.90;75.60;;;;;;5116658;28;20436;-76
2021/04/15 07:06:55;;;;;;;11.10;8.13;;;7.00;75.40;;;;;;5116528;28;20455;-77
2021/04/15 07:09:50;;;;;;;10.43;7.93;;;7.20;74.90;;;;;;5116608;28;20496;-76
2021/04/15 07:12:48;;;;;;;9.67;7.53;;;7.30;74.00;;;;;;5116109;28;20812;-76
2021/04/15 07:15:40;;;;;;;13.07;9.30;;;7.40;73.50;;;;;;5116430;28;20519;-76
2021/04/15 07:18:37;;;;;;;11.90;8.70;;;7.60;73.50;;;;;;5116538;28;20454;-77
2021/04/15 07:21:31;;;;;;;11.13;8.27;;;7.70;72.80;;;;;;5116035;28;20437;-77
2021/04/15 07:24:28;;;;;;;13.57;6.90;;;7.90;72.20;;;;;;5102498;28;20456;-77
2021/04/15 07:27:21;;;;;;;8.03;6.97;;;8.10;71.60;;;;;;5116757;28;20460;-78
2021/04/15 07:30:20;;;;;;;6.53;5.80;;;8.30;71.00;;;;;;5117008;28;20516;-77
2021/04/15 07:33:17;;;;;;;8.20;7.00;;;8.40;69.70;;;;;;5117042;28;21009;-77
2021/04/15 07:35:55;;;;;;;12.67;7.17;;;8.60;68.90;;;;;;5117092;28;20465;-78
2021/04/15 07:38:44;;;;;;;9.07;6.10;;;8.70;68.20;;;;;;5117318;28;20789;-77
2021/04/15 07:41:27;;;;;;;8.23;6.00;;;8.90;67.50;;;;;;5117281;28;20419;-78
2021/04/15 07:44:15;;;;;;;10.67;5.90;;;9.00;67.00;;;;;;5117283;28;20434;-78
2021/04/15 07:46:49;;;;;;;8.33;5.90;;;9.20;65.80;;;;;;5106284;28;20478;-76
2021/04/15 07:49:36;;;;;;;7.70;6.37;;;9.50;65.20;;;;;;5115746;28;20468;-76
2021/04/15 07:52:35;;;;;;;8.43;5.80;;;9.70;64.50;;;;;;5115558;28;20794;-76
2021/04/15 07:55:15;;;;;;;14.07;6.80;;;9.90;63.70;;;;;;5115542;28;20908;-76
2021/04/15 07:58:23;;;;;;;6.47;5.53;;;10.00;61.50;;;;;;5116521;28;20436;-77
2021/04/15 08:01:17;;;;;;;7.03;4.80;;;10.20;60.70;;;;;;5116773;28;20447;-78
2021/04/15 08:04:17;;;;;;;7.30;4.67;;;10.40;59.80;;;;;;5113506;28;20462;-78
2021/04/15 08:06:53;;;;;;;10.00;6.50;;;10.60;59.40;;;;;;5116339;28;20463;-77
2021/04/15 08:09:54;;;;;;;6.13;5.13;;;10.80;58.50;;;;;;5116016;28;20515;-78
2021/04/15 08:12:50;;;;;;;7.00;4.90;;;11.10;58.40;;;;;;5116730;28;20431;-78
2021/04/15 08:15:55;;;;;;;11.10;5.20;;;11.30;57.90;;;;;;5116465;28;20817;-78
2021/04/15 08:18:35;;;;;;;8.67;5.13;;;11.50;57.40;;;;;;5081737;28;20446;-78
2021/04/15 08:21:16;;;;;;;8.07;4.40;;;11.80;56.70;;;;;;5116110;28;20438;-78
2021/04/15 08:24:07;;;;;;;6.50;4.43;;;12.00;55.60;;;;;;5115775;28;20908;-78
2021/04/15 08:27:21;;;;;;;5.47;3.87;;;12.20;54.50;;;;;;5116098;28;20552;-78
2021/04/15 08:30:07;;;;;;;5.23;3.97;;;12.50;53.70;;;;;;5116074;28;20466;-78
2021/04/15 08:32:42;;;;;;;4.83;3.57;;;12.80;52.90;;;;;;5117081;28;20435;-78
2021/04/15 08:35:17;;;;;;;5.33;4.03;;;13.00;52.10;;;;;;5117824;28;20431;-78
2021/04/15 08:38:15;;;;;;;5.40;3.40;;;13.10;50.80;;;;;;5117302;28;20908;-79
2021/04/15 08:40:55;;;;;;;8.33;3.23;;;13.20;49.70;;;;;;5117396;28;20447;-79
2021/04/15 08:43:46;;;;;;;4.10;2.50;;;13.10;49.60;;;;;;5117583;28;20427;-78
2021/04/15 08:46:18;;;;;;;5.73;3.00;;;13.00;49.20;;;;;;5115875;28;20459;-78
2021/04/15 08:48:54;;;;;;;4.93;3.27;;;13.10;49.50;;;;;;5115434;28;20471;-78
2021/04/15 08:51:47;;;;;;;3.40;2.70;;;13.10;49.60;;;;;;5115531;28;20431;-78
2021/04/15 08:54:57;;;;;;;4.93;3.40;;;13.20;49.60;;;;;;5115091;28;20431;-78
2021/04/15 08:57:29;;;;;;;3.37;2.17;;;13.30;49.20;;;;;;5076699;27;20575;-78
2021/04/15 09:00:10;;;;;;;5.70;2.27;;;13.40;49.00;;;;;;5115054;28;20467;-78
2021/04/15 09:02:44;;;;;;;2.70;2.30;;;13.40;48.50;;;;;;5115453;28;20421;-78
2021/04/15 09:05:16;;;;;;;5.10;2.60;;;13.40;48.10;;;;;;5115161;28;20431;-78
2021/04/15 09:07:56;;;;;;;4.77;2.10;;;13.50;47.60;;;;;;5114946;28;20463;-78
2021/04/15 09:10:30;;;;;;;5.27;2.90;;;13.50;47.40;;;;;;5116168;28;20478;-78
2021/04/15 09:13:16;;;;;;;4.10;2.60;;;13.40;46.70;;;;;;5115180;28;20787;-78
2021/04/15 09:15:52;;;;;;;6.13;4.57;;;13.40;47.10;;;;;;5115189;28;20431;-78
2021/04/15 09:18:24;;;;;;;3.40;2.40;;;13.50;47.60;;;;;;5114606;28;20419;-78
2021/04/15 09:21:02;;;;;;;5.10;3.00;;;13.60;47.40;;;;;;5114241;28;20931;-77
2021/04/15 09:23:40;;;;;;;5.27;3.13;;;13.60;46.30;;;;;;5114944;28;20427;-78
2021/04/15 09:26:22;;;;;;;5.70;2.50;;;13.60;46.50;;;;;;5114458;28;20505;-78
2021/04/15 09:29:12;;;;;;;6.60;3.70;;;13.50;45.20;;;;;;5114689;28;20458;-78
2021/04/15 09:31:50;;;;;;;3.80;3.27;;;13.60;46.70;;;;;;5115445;28;20901;-79
2021/04/15 09:35:07;;;;;;;9.17;4.80;;;13.40;46.30;;;;;;5116170;28;20438;-78
2021/04/15 09:38:12;;;;;;;5.93;4.77;;;13.40;47.10;;;;;;5115783;28;20423;-78
2021/04/15 09:40:48;;;;;;;5.67;3.63;;;13.30;47.30;;;;;;5081476;28;20439;-78
2021/04/15 09:43:24;;;;;;;4.93;4.40;;;13.50;48.10;;;;;;5115814;28;20423;-79
2021/04/15 09:46:06;;;;;;;7.03;4.43;;;13.80;47.20;;;;;;5115970;28;20510;-78
2021/04/15 09:48:59;;;;;;;9.10;5.17;;;13.90;45.90;;;;;;5116030;28;20524;-78
2021/04/15 09:51:53;;;;;;;9.10;5.73;;;14.00;45.30;;;;;;5116034;28;20431;-78
2021/04/15 09:54:31;;;;;;;8.63;4.60;;;13.70;44.50;;;;;;5115729;28;20431;-78
2021/04/15 09:57:06;;;;;;;6.20;4.30;;;13.20;44.90;;;;;;5115338;28;20748;-79
2021/04/15 09:59:58;;;;;;;5.80;3.87;;;13.30;46.50;;;;;;5115508;28;20462;-78
2021/04/15 10:02:33;;;;;;;7.23;4.40;;;13.50;44.20;;;;;;5116788;28;20408;-79
2021/04/15 10:05:04;;;;;;;6.93;4.30;;;13.90;44.30;;;;;;5115748;28;20419;-78
2021/04/15 10:07:36;;;;;;;10.30;4.23;;;14.30;43.80;;;;;;5114584;28;20466;-76
2021/04/15 10:10:13;;;;;;;3.13;2.70;;;14.70;42.80;;;;;;5114360;28;20459;-76
2021/04/15 10:12:58;;;;;;;3.50;2.60;;;15.40;43.20;;;;;;5114778;28;20494;-78
2021/04/15 10:15:41;;;;;;;3.20;2.70;;;16.40;40.10;;;;;;5115090;28;20548;-78
2021/04/15 10:18:17;;;;;;;3.90;2.30;;;16.90;38.20;;;;;;5115440;28;20764;-78
2021/04/15 10:21:12;;;;;;;3.83;2.47;;;17.30;37.40;;;;;;5113889;28;20843;-76
2021/04/15 10:24:15;;;;;;;1.97;1.80;;;18.00;37.40;;;;;;5106769;28;20825;-76
2021/04/15 10:27:16;;;;;;;3.07;1.90;;;18.80;34.00;;;;;;5114155;28;20478;-80
2021/04/15 10:30:16;;;;;;;2.00;1.57;;;19.60;34.00;;;;;;5093967;28;20475;-80
2021/04/15 10:33:02;;;;;;;4.47;2.77;;;20.40;31.90;;;;;;5114844;28;20829;-78
2021/04/15 10:35:58;;;;;;;3.60;3.30;;;21.40;31.40;;;;;;5118134;28;20807;-78
2021/04/15 10:38:41;;;;;;;5.90;4.47;;;22.40;29.60;;;;;;5042153;28;20874;-77
2021/04/15 10:41:40;;;;;;;7.30;5.90;;;23.30;28.60;;;;;;5118634;28;20438;-79
2021/04/15 10:44:25;;;;;;;6.57;5.77;;;23.30;27.30;;;;;;5107902;28;20447;-75
2021/04/15 10:47:07;;;;;;;7.10;5.13;;;23.00;27.50;;;;;;5117290;28;20512;-77
2021/04/15 10:49:44;;;;;;;4.10;3.80;;;22.90;28.40;;;;;;5117028;28;20459;-77
2021/04/15 10:52:23;;;;;;;6.80;4.50;;;22.80;27.30;;;;;;5117192;28;20427;-77
2021/04/15 10:54:50;;;;;;;6.60;5.10;;;22.20;27.50;;;;;;5117139;28;20426;-76
2021/04/15 10:57:20;;;;;;;6.73;6.03;;;21.40;27.20;;;;;;5116941;28;20814;-77
2021/04/15 10:59:48;;;;;;;7.37;5.20;;;20.60;28.60;;;;;;5117113;28;20463;-77
2021/04/15 11:02:31;;;;;;;5.60;4.90;;;20.10;29.90;;;;;;5117311;28;20443;-76
2021/04/15 11:05:20;;;;;;;6.93;5.97;;;19.70;30.40;;;;;;5117402;28;20877;-76
2021/04/15 11:07:48;;;;;;;7.17;4.10;;;19.10;30.00;;;;;;5116457;28;20486;-76
2021/04/15 11:10:29;;;;;;;4.50;3.00;;;18.60;31.10;;;;;;5116026;28;21053;-76
2021/04/15 11:13:11;;;;;;;3.87;2.83;;;18.20;32.90;;;;;;5116530;28;20514;-77
2021/04/15 11:15:41;;;;;;;7.47;3.70;;;18.10;33.30;;;;;;5116373;28;20423;-76
2021/04/15 11:18:10;;;;;;;5.00;2.53;;;18.10;33.10;;;;;;5117895;28;20432;-77
2021/04/15 11:20:41;;;;;;;4.20;3.20;;;18.20;33.40;;;;;;5116975;28;20442;-76
2021/04/15 11:23:27;;;;;;;4.17;3.47;;;18.30;33.00;;;;;;5117053;28;20431;-77
2021/04/15 11:25:54;;;;;;;2.83;2.20;;;18.70;32.20;;;;;;5116017;28;20545;-76
2021/04/15 11:28:32;;;;;;;4.40;3.03;;;19.30;30.90;;;;;;5116100;28;20438;-75
2021/04/15 11:31:00;;;;;;;2.73;2.53;;;19.60;31.40;;;;;;5116162;28;20434;-74
2021/04/15 11:33:40;;;;;;;7.47;3.13;;;19.70;31.10;;;;;;5116756;28;20431;-77
2021/04/15 11:36:13;;;;;;;5.43;3.13;;;19.40;28.80;;;;;;5116907;28;20431;-76
2021/04/15 11:38:40;;;;;;;7.03;2.93;;;19.10;28.50;;;;;;5117427;28;20467;-77
2021/04/15 11:41:16;;;;;;;3.40;3.00;;;18.60;29.20;;;;;;5116011;28;20436;-77
2021/04/15 11:43:43;;;;;;;4.07;2.47;;;18.10;31.30;;;;;;5116006;28;20456;-77
2021/04/15 11:46:16;;;;;;;8.00;4.07;;;18.00;32.30;;;;;;5115814;28;20479;-77
2021/04/15 11:48:42;;;;;;;3.27;2.97;;;18.20;32.50;;;;;;5115798;28;20462;-77
2021/04/15 11:51:16;;;;;;;3.90;2.87;;;19.00;32.40;;;;;;5115872;28;20443;-77
2021/04/15 11:53:47;;;;;;;4.83;2.80;;;20.50;29.80;;;;;;5115789;28;20480;-75
2021/04/15 11:56:32;;;;;;;7.13;3.10;;;22.10;29.10;;;;;;5115422;28;20432;-74
2021/04/15 11:59:15;;;;;;;2.63;2.00;;;23.30;26.90;;;;;;5115503;28;20470;-75
2021/04/15 12:01:41;;;;;;;3.10;2.40;;;24.50;26.50;;;;;;5115555;28;20427;-75
2021/04/15 12:04:13;;;;;;;6.80;2.60;;;25.60;25.60;;;;;;5115545;28;20479;-76
2021/04/15 12:06:45;;;;;;;4.37;2.80;;;27.00;24.50;;;;;;5115594;28;20470;-75
2021/04/15 12:09:15;;;;;;;4.63;2.73;;;28.30;21.60;;;;;;5115189;28;20489;-75
2021/04/15 12:11:56;;;;;;;3.20;2.70;;;28.70;20.90;;;;;;5115271;28;20427;-75
2021/04/15 12:14:23;;;;;;;3.07;2.43;;;28.30;20.50;;;;;;5115213;28;20435;-75
2021/04/15 12:16:56;;;;;;;5.07;2.10;;;27.40;21.60;;;;;;5115193;28;20430;-75
2021/04/15 12:19:30;;;;;;;2.40;2.20;;;26.40;22.00;;;;;;5115143;28;20467;-75
2021/04/15 12:22:04;;;;;;;5.43;2.43;;;25.30;23.30;;;;;;5115082;28;20478;-75
2021/04/15 12:24:37;;;;;;;2.90;2.43;;;24.40;23.80;;;;;;5114717;28;20423;-75
2021/04/15 12:27:06;;;;;;;2.80;2.60;;;23.80;24.40;;;;;;5114866;28;20498;-75
2021/04/15 12:29:37;;;;;;;4.77;2.73;;;24.20;22.80;;;;;;5114921;28;20459;-75
2021/04/15 12:32:09;;;;;;;4.53;2.50;;;25.00;23.70;;;;;;5115197;28;20427;-77
2021/04/15 12:34:54;;;;;;;3.83;2.60;;;26.30;24.00;;;;;;5114801;28;20785;-75
2021/04/15 12:37:28;;;;;;;5.87;2.70;;;27.20;20.30;;;;;;5114463;28;20885;-75
2021/04/15 12:40:14;;;;;;;4.23;3.03;;;27.60;20.80;;;;;;5114870;28;20471;-74
2021/04/15 12:42:43;;;;;;;2.90;2.57;;;27.80;21.40;;;;;;5114739;28;20423;-75
2021/04/15 12:45:14;;;;;;;5.33;2.80;;;27.40;21.50;;;;;;5114410;28;20443;-77
2021/04/15 12:47:42;;;;;;;3.30;2.47;;;26.80;21.80;;;;;;5114613;28;20474;-77
2021/04/15 12:50:10;;;;;;;4.10;3.00;;;26.10;22.30;;;;;;5114236;28;21081;-75
2021/04/15 12:52:37;;;;;;;3.23;2.90;;;25.40;22.30;;;;;;5114704;28;20424;-75
2021/04/15 12:55:09;;;;;;;6.97;2.63;;;24.50;23.10;;;;;;5114277;28;20470;-75
2021/04/15 12:57:36;;;;;;;2.20;2.00;;;24.00;24.30;;;;;;5114082;28;20423;-75
2021/04/15 13:00:07;;;;;;;5.00;2.50;;;23.60;25.00;;;;;;5114309;28;20463;-75
2021/04/15 13:02:35;;;;;;;2.30;2.07;;;23.30;25.10;;;;;;5114409;28;20431;-75
2021/04/15 13:05:06;;;;;;;2.30;1.83;;;23.00;25.50;;;;;;5114304;28;20443;-76
2021/04/15 13:07:36;;;;;;;2.07;1.93;;;22.80;25.80;;;;;;5114240;28;20484;-77
2021/04/15 13:10:38;;;;;;;2.90;2.30;;;22.80;25.60;;;;;;5114441;28;20465;-77
2021/04/15 13:13:20;;;;;;;3.00;2.33;;;23.60;24.30;;;;;;5100819;27;20461;-77
2021/04/15 13:15:47;;;;;;;2.70;1.97;;;25.00;24.00;;;;;;5114062;28;20924;-76
2021/04/15 13:18:36;;;;;;;2.43;2.10;;;26.40;22.80;;;;;;5114070;28;20484;-77
2021/04/15 13:21:09;;;;;;;2.50;2.10;;;27.20;21.20;;;;;;5114146;28;20423;-77
2021/04/15 13:23:40;;;;;;;2.13;1.67;;;27.10;20.80;;;;;;5115402;28;20426;-77
2021/04/15 13:26:38;;;;;;;5.70;2.50;;;26.60;21.20;;;;;;5113755;28;20446;-77
2021/04/15 13:29:17;;;;;;;4.80;2.30;;;25.70;22.30;;;;;;5114306;28;20462;-77
2021/04/15 13:31:47;;;;;;;5.93;2.43;;;24.80;22.60;;;;;;5114470;28;20492;-75
2021/04/15 13:34:17;;;;;;;3.80;3.17;;;24.00;23.30;;;;;;5114010;28;20474;-75
2021/04/15 13:36:44;;;;;;;2.73;2.30;;;23.30;24.40;;;;;;5114147;28;20439;-77
2021/04/15 13:39:31;;;;;;;2.50;2.27;;;22.60;24.80;;;;;;5115246;28;20466;-75